Walid Al Naqbi

Recruteur en chef - Al Nasr
20 Févr 2028
Dimanche
Processus

Personnalité

Adaptabilité (12) Ambition (17) Controverse (19) Loyauté (3) Pression (7) Professionnalisme (5) Sportivité (15) Tempérament (3)

Profil

Style d'entraînement Démocratique
Diplôme Continental B
Détermination 10
Gestion des joueurs 7
Motivation 6
Discipline 4
Satisfaction professionnelle
100%
Fatigue
0%
Rôle Recruteur en chef
Salaire 34.3K p/s
Contrat 14.03.2030

Performance

Comportement Bon
Efficacité de l'entraînement
40%
Développement des joueurs
25%
Prévention des blessures
60%
Mise en place tactique
30%

Événements récents

A évalué un joueur maintenant
A participé à une réunion de recrutement maintenant
A évalué un joueur maintenant
A évalué un joueur maintenant
A évalué un joueur maintenant
A évalué un joueur 7j
A évalué un joueur 7j
A évalué un joueur 7j

Suivi en cours

187
Joueur Club Statut Capacité Confiance Observé Dernière observation Dernier vote
Lewis Morgan SuperSport United Actif 144 / 136 40% 2 19.02.2028 -
Yusuke Matsuo Esteghlal Actif 131 / 128 40% 1 18.02.2028 -
Iván Angulo Orlando City Actif 126 / 140 40% 1 18.02.2028 -
Ernie Weaver AFC Wimbledon Actif 100 / 127 40% 2 17.02.2028 -
Jan Bürger Gillingham Actif 107 / 115 40% 2 17.02.2028 -
Brais Méndez Columbus Crew Actif 160 / 145 40% 1 17.02.2028 -
Mahmoud Al Shamsi Zamalek Actif 142 / 133 40% 1 17.02.2028 -
Ronan Kpakio Cardiff City Actif 130 / 139 40% 1 15.02.2028 -
Moustapha Sémbène Hajer Actif 100 / 111 40% 2 14.02.2028 -
Owen Foye Swindon Town Actif 70 / 96 40% 1 14.02.2028 -
Mohau Nkota Al-Ettifaq Actif 125 / 119 40% 2 12.02.2028 -
Theo Bongonda Al-Ra'ed Actif 146 / 143 40% 1 12.02.2028 -
Nasser Mansi Najran Actif 125 / 123 40% 1 10.02.2028 -
Josh Brownhill Al-Shabab Actif 131 / 140 40% 1 09.02.2028 -
John Okoye Ebuka Ittihad Actif 114 / 108 40% 1 09.02.2028 -
Youssef Belammari Al Ahly Actif 128 / 126 40% 1 08.02.2028 -
Allan Saint-Maximin Charlotte Football Club Actif 126 / 147 40% 1 08.02.2028 -
Emmanuel Sabbi Vancouver Whitecaps Actif 107 / 118 40% 2 07.02.2028 -
Luciano Boggio Nacional Actif 119 / 124 40% 1 07.02.2028 -
Farid El Melali CR Belouizdad Actif 114 / 138 40% 1 25.01.2028 -
Mahamadou Doumbia Al-Ittihad Actif 145 / 138 40% 1 25.01.2028 -
Renato Júnior Al Wasl Actif 121 / 120 55% 1 24.01.2028 -
Yaseen Al-Jaber Al-Saudi Al-Watani Actif 87 / 88 40% 1 18.01.2028 -
Leandrinho Emirates Club Actif 124 / 122 55% 1 17.01.2028 -
David Valencia Alianza Petrolera Actif 122 / 134 40% 1 17.01.2028 -
Ibrahim El Wensh Masr El Makasa Actif 86 / 89 40% 1 17.01.2028 -
Mandla Mahlangu Ajax Cape Town Perdu 105 / 106 66% 1 01.01.2028 -
Peter Shalulile Mamelodi Sundowns Perdu 129 / 129 66% 1 01.01.2028 Approuver
Emilio Di Fulvio Colegiales Actif 124 / 119 40% 1 01.01.2028 -
Angus Gunn San Jose Earthquakes Actif 113 / 129 40% 1 01.01.2028 -
Maximiliano Gómez Nacional Actif 125 / 129 40% 4 30.12.2027 -
Alexander Díaz Deportivo Riestra Actif 134 / 124 40% 3 30.12.2027 -
Timo Werner San Jose Earthquakes Actif 122 / 138 40% 4 29.12.2027 -
Brian Mansilla Akhmat Grozny Actif 143 / 134 40% 1 29.12.2027 -
Tomás Chancalay Minnesota United FC Actif 136 / 116 40% 7 28.12.2027 -
Luciano Cosentino Wanderers Actif 128 / 118 40% 5 26.12.2027 -
Josh Sargent Toronto FC Actif 146 / 118 40% 5 26.12.2027 -
Wilfried Kanga Al-Fateh Actif 120 / 130 40% 3 25.12.2027 -
Musa Barrow Al-Khaleej Actif 153 / 135 40% 1 25.12.2027 -
Wessam Abou Ali Columbus Crew Actif 122 / 129 40% 4 24.12.2027 -
Vegard Erlien Tromso Actif 110 / 117 40% 3 22.12.2027 -
Mehdi Ghayedi Al Ahly Actif 121 / 142 40% 2 22.12.2027 -
Ollie Watkins Estudiantes Actif 144 / 157 40% 3 20.12.2027 -
Monsef Bakrar Al Ahly Actif 111 / 120 40% 1 20.12.2027 -
Hwang Hee-Chan Wolverhampton Actif 127 / 149 40% 1 19.12.2027 -
Martín Ojeda Orlando City Actif 118 / 125 40% 2 18.12.2027 -
Tomás Conechny Racing Club Actif 133 / 120 40% 2 15.12.2027 -
Jesus Ferreira Seattle Sounders Actif 131 / 133 40% 7 15.12.2027 -
Jofre Torrents Ajax Actif 139 / 141 40% 3 12.12.2027 -
Hervin Goyes Deportivo Pasto Actif 97 / 108 40% 2 12.12.2027 -
Morgan Guilavogui Real Salt Lake Actif 115 / 136 40% 2 08.12.2027 -
Tiago Gordillo San Miguel Actif 80 / 98 40% 2 07.12.2027 -
Marvelous Freedom Ikorodu City Actif 93 / 104 40% 1 07.12.2027 -
Alejo Cruz Juventud Actif 135 / 114 40% 1 07.12.2027 -
João Klauss LA Galaxy Actif 123 / 137 40% 1 06.12.2027 -
Luca Langoni Colorado Rapids Actif 125 / 129 40% 1 01.12.2027 -
Moussa Dembélé CR Belouizdad Actif 145 / 138 40% 1 29.11.2027 -
Tadeo Allende Inter Miami CF Actif 110 / 132 40% 2 28.11.2027 -
Brandon Vázquez Austin FC Actif 123 / 121 40% 1 28.11.2027 -
Hosea Michael Remo Stars Actif 92 / 93 40% 3 23.11.2027 -
Edwuin Cetré Estudiantes Actif 130 / 134 40% 2 23.11.2027 -
Sam Surridge Nashville SC Actif 148 / 125 40% 3 21.11.2027 -
David Asayure Lokomotivi Actif 95 / 86 40% 1 20.11.2027 -
Samuel Posada Leones Actif 89 / 83 40% 4 19.11.2027 -
Joel Ezra Enyimba Actif 94 / 98 40% 4 16.11.2027 -
Lucas Camejo River Plate Actif 84 / 90 40% 2 12.11.2027 -
Mads Bomholt Stabaek Actif 91 / 111 40% 1 12.11.2027 -
Alexis Cuello San Lorenzo Actif 117 / 129 40% 4 09.11.2027 -
Cheikh Sabaly Vancouver Whitecaps Actif 111 / 136 40% 1 08.11.2027 -
Rafael Navarro St. Louis CITY SC Actif 117 / 127 40% 2 06.11.2027 -
Harbor Miller LA Galaxy Actif 104 / 98 40% 1 05.11.2027 -
Kerwin Vargas Seattle Sounders Actif 111 / 139 40% 2 04.11.2027 -
Ignacio Ramírez Newell's Old Boys Actif 113 / 132 40% 3 04.11.2027 -
Breel Embolo Atlanta United FC Actif 145 / 135 40% 3 30.10.2027 -
Juan Camilo Córdoba Deportivo Pereira Actif 81 / 98 40% 2 29.10.2027 -
Abubacarr Sedi Kinteh Al-Hilal Actif 136 / 138 40% 4 29.10.2027 -
Daniel Karlsbakk Sarpsborg 08 Actif 137 / 119 40% 1 29.10.2027 -
Afimico Pululu Rosario Central Actif 129 / 136 40% 2 23.10.2027 -
Tyson Pearce St. Louis CITY SC Actif 100 / 104 40% 3 22.10.2027 -
Leonardo Campana New England Revolution Actif 126 / 120 40% 2 22.10.2027 -
Nəriman Axundzadə Columbus Crew Actif 112 / 126 40% 3 21.10.2027 -
Agustín Anello Philadelphia Union Actif 112 / 127 40% 1 21.10.2027 -
Onuorah Onyedika Kun Khalifat Actif 94 / 90 40% 1 20.10.2027 -
Luca Martínez Dupuy Godoy Cruz Actif 114 / 125 40% 2 14.10.2027 -
Mikkel Hope Haugesund Actif 117 / 110 40% 3 13.10.2027 -
Olaniyi Saheed Kwara United Actif 79 / 89 40% 1 13.10.2027 -
Godwin Oham Warri Wolves Actif 73 / 84 40% 1 08.10.2027 -
Duncan McGuire Houston Dynamo Actif 112 / 127 40% 1 07.10.2027 -
Ignacio Fernández Boston River Actif 89 / 91 40% 2 30.09.2027 -
Julián Bazán Philadelphia Union Actif 120 / 116 40% 2 29.09.2027 -
José Correa Deportivo Tachira Actif 88 / 97 40% 1 29.09.2027 -
Issa Yusuf Shooting Stars Actif 100 / 91 40% 1 28.09.2027 -
Mauro Carrizo Atlético Tucumán Actif 95 / 105 40% 2 26.09.2027 -
Esteban de Lima Tacuarembo Actif 93 / 94 40% 2 22.09.2027 -
Julio Patiño Fortaleza CEIF Actif 73 / 84 40% 1 17.09.2027 -
Jair Collahuazo Kudrivka Actif 117 / 121 40% 2 16.09.2027 -
Luis Otávio Colorado Rapids Actif 106 / 127 40% 1 16.09.2027 -
Alejandro Almaraz Nueva Chicago Actif 96 / 123 40% 1 15.09.2027 -
Ricky Atletico Venezuela Actif 93 / 106 40% 1 14.09.2027 -
Mbekezeli Mbokazi Chicago Fire Actif 137 / 122 40% 2 11.09.2027 -
Diego Vargas San Marcos de Arica Actif 103 / 93 40% 1 10.09.2027 -
Chibueze Oputa Rangers International Actif 97 / 103 40% 1 08.09.2027 -
Matías Canedo Rampla Juniors Actif 86 / 93 40% 1 06.09.2027 -
Jofrank Istifanus Nasarawa United Actif 69 / 103 40% 1 31.08.2027 -
Alejo Dramisino Atlanta Actif 125 / 123 40% 1 30.08.2027 -
Antony Portland Timbers Actif 117 / 140 40% 1 30.08.2027 -
Renzo Bacchia Racing Actif 125 / 110 40% 1 23.08.2027 -
Roberto Ramírez Godoy Cruz Actif 124 / 109 40% 1 23.08.2027 -
Farhah Al-Shamrani Al-Ra'ed Actif 90 / 108 40% 1 21.08.2027 -
Ismail Al Suwaidi Al Fujairah Actif 121 / 144 40% 2 19.08.2027 -
Gabriel Strefezza Palermo Actif 133 / 138 40% 1 18.08.2027 -
Chari Giwa US Bougouba Actif 91 / 81 40% 1 09.08.2027 -
Ibrahim Sabiu Bendel Insurance Actif 70 / 88 40% 1 28.07.2027 -
Matheus Gonçalves Al-Ahli Actif 129 / 131 40% 2 28.06.2027 -
Ben Sheaf Wrexham Actif 128 / 135 40% 1 28.06.2027 -
Musab Al-Juwayr Al-Qadisiyah Actif 128 / 140 40% 1 18.06.2027 -
Miguel Crespo Al-Khaleej Actif 124 / 122 40% 1 18.06.2027 -
Yuval Ranon Vitesse Actif 111 / 91 40% 1 04.06.2027 -
Baylee Dipepa Norwich City Actif 92 / 127 40% 1 03.06.2027 -
Alagie Wally Veres Actif 92 / 88 40% 1 03.06.2027 -
Bento Al-Nassr Actif 146 / 126 40% 6 01.06.2027 -
Tshepang Moremi Orlando Pirates Perdu 113 / 113 66% 1 01.06.2027 Approuver
Khama Dolly Utrecht Négociation 123 / 124 68% 1 01.06.2027 -
Daniel Awuni Aduana Stars Actif 102 / 81 40% 1 30.05.2027 -
Tiago Freitas Benfica Actif 107 / 112 40% 1 30.05.2027 -
Samuele Perisan Audace Cerignola Actif 119 / 113 40% 4 28.05.2027 -
Michael Cooper Sheffield United Actif 149 / 119 40% 2 28.05.2027 -
Daniel Iversen Preston Actif 125 / 129 40% 4 27.05.2027 -
Christian Walton Ipswich Town Actif 148 / 125 40% 1 21.05.2027 -
Jonathan Klinsmann Cesena Actif 114 / 133 40% 2 19.05.2027 -
Cesare Galeotti Trapani Actif 102 / 103 40% 1 19.05.2027 -
Max O'Leary West Bromwich Albion Actif 114 / 127 40% 2 17.05.2027 -
Percy Jali Free State Stars Actif 90 / 86 40% 3 16.05.2027 -
Murphy Cooper Plymouth Argyle Actif 123 / 124 40% 5 14.05.2027 -
Egil Selvik Watford Actif 110 / 141 40% 5 13.05.2027 -
Tommaso Nobile Renate Actif 97 / 112 40% 2 11.05.2027 -
Bradley Mabunda SuperSport United Actif 97 / 103 40% 2 10.05.2027 -
Michele Cerofolini Bari Actif 129 / 142 40% 4 07.05.2027 -
Alfie Whiteman Newport County Actif 101 / 102 40% 2 07.05.2027 -
Balázs Tóth Blackburn Rovers Actif 142 / 139 40% 1 06.05.2027 -
Gianmarco Vannucchi Benevento Actif 124 / 129 40% 1 05.05.2027 -
Leandro Martins Benfica Actif 100 / 102 40% 1 04.05.2027 -
Franz-Ethan Meichtry Genoa Actif 123 / 135 40% 1 03.05.2027 -
Paulo Iago Sporting CP Actif 95 / 88 40% 1 25.04.2027 -
Dramane Kamagaté USM Alger Actif 107 / 106 40% 1 25.04.2027 -
Víctor Guzmán Sporting CP Actif 86 / 86 40% 2 24.04.2027 -
Shea Lacey Wolverhampton Actif 119 / 118 40% 2 17.04.2027 -
Daniil Frolkin Fakel Actif 91 / 98 40% 2 15.04.2027 -
Bailey Peacock-Farrell Blackpool Actif 99 / 115 40% 2 15.04.2027 -
Fahad Hassan Al Shabab Actif 117 / 131 40% 2 13.04.2027 -
Will Dennis Milton Keynes Dons Actif 91 / 101 40% 1 12.04.2027 -
Joel Pereira Reading Actif 119 / 124 40% 1 12.04.2027 -
Walid Juma Al Shaab Actif 105 / 111 40% 1 05.04.2027 -
Rashid Al Junaibi Al Ahli Actif 121 / 122 40% 3 04.04.2027 -
George Wickens Lincoln City Actif 100 / 110 40% 1 04.04.2027 -
Valentin Atangana Al-Ahli Actif 134 / 140 40% 1 03.04.2027 -
Rocco Vata Watford Actif 120 / 120 40% 1 03.04.2027 -
Riccardo Gagno Vicenza Actif 120 / 114 40% 1 29.03.2027 -
David Ozoh Derby County Actif 132 / 118 40% 1 26.03.2027 -
Ethan Williams Peterborough United Actif 128 / 133 40% 1 24.03.2027 -
James Dornelly Peterborough United Actif 112 / 97 40% 1 23.03.2027 -
Cemran Dansin Orlando Pirates Actif 107 / 101 40% 1 22.03.2027 -
Wladimiro Falcone Lecce Actif 124 / 145 40% 1 20.03.2027 -
Sergio Barlocco Trento Actif 105 / 97 40% 1 19.03.2027 -
Williams Wonah AS Korofina Actif 61 / 93 40% 1 18.03.2027 -
Rafael Camacho Sporting CP Actif 88 / 97 40% 1 18.03.2027 -
Dimitar Sheytanov CSKA 1948 Actif 117 / 120 40% 1 16.03.2027 -
Alexandr Koryakin Krasnodar Actif 101 / 114 40% 1 16.03.2027 -
Gianluca Saro Foggia Actif 109 / 122 40% 1 14.03.2027 -
Lynden Edhart Cambuur Actif 116 / 103 40% 1 14.03.2027 -
Fuzy Taylor Medeama Actif 84 / 88 40% 1 06.03.2027 -
Nino Marcelli Slovan Bratislava Actif 120 / 137 40% 1 02.03.2027 -
Kamran Ramazanov Inter Actif 97 / 104 40% 1 27.12.2026 -
Simphiwe Selepe Orlando Pirates Actif 114 / 114 40% 1 26.12.2026 -
Mpho Khethang AS Police Actif 66 / 89 40% 1 26.12.2026 -
Leandrinho Sharjah Actif 117 / 107 40% 1 23.12.2026 -
Rodrigo Dias Sporting CP Actif 113 / 110 40% 1 22.12.2026 -
João Simões Sporting CP Actif 117 / 123 40% 1 22.12.2026 -
Martim Cunha Porto Actif 116 / 103 40% 1 21.12.2026 -
Maxim Radchenko Rostov Actif 89 / 74 40% 1 18.12.2026 -
Keagan Phiri Platinum Stars Actif 113 / 117 40% 1 16.12.2026 -
Alan Forneris Racing Club Actif 111 / 124 40% 1 15.12.2026 -
João Muniz Sporting CP Actif 104 / 112 40% 1 07.12.2026 -
Hlompho Lorch Ajax Cape Town Actif 113 / 116 40% 1 17.11.2026 -
Joel Godoy Sarmiento Actif 120 / 128 40% 1 04.11.2026 -
Ismail Abdulrahman Al Shaab Actif 132 / 117 40% 1 04.11.2026 -
Walid Omar Al Shaab Actif 124 / 116 55% 1 03.08.2026 -